createdAt,value
2022-08-17T00:00:43.294Z,20.50
2022-08-17T00:03:13.543Z,20.50
2022-08-17T00:05:46.905Z,20.50
2022-08-17T00:08:18.322Z,20.50
2022-08-17T00:10:48.079Z,20.50
2022-08-17T00:13:21.576Z,20.40
2022-08-17T00:15:50.995Z,20.40
2022-08-17T00:19:02.443Z,20.40
2022-08-17T00:21:11.229Z,20.40
2022-08-17T00:23:47.814Z,20.30
2022-08-17T00:26:43.671Z,20.30
2022-08-17T00:29:10.049Z,20.30
2022-08-17T00:31:48.893Z,20.30
2022-08-17T00:34:17.961Z,20.40
2022-08-17T00:36:46.558Z,20.30
2022-08-17T00:39:15.183Z,20.20
2022-08-17T00:41:43.838Z,20.20
2022-08-17T00:44:13.762Z,20.20
2022-08-17T00:46:43.978Z,20.20
2022-08-17T00:49:14.127Z,20.20
2022-08-17T00:51:47.378Z,20.10
2022-08-17T00:54:22.239Z,20.10
2022-08-17T00:56:55.618Z,20.10
2022-08-17T00:59:30.833Z,20.00
2022-08-17T01:02:00.750Z,20.00
2022-08-17T01:04:31.116Z,20.00
2022-08-17T01:07:01.829Z,20.00
2022-08-17T01:09:31.038Z,20.00
2022-08-17T01:11:59.899Z,20.00
2022-08-17T01:14:29.962Z,20.00
2022-08-17T01:17:00.172Z,20.00
2022-08-17T01:19:32.098Z,20.10
2022-08-17T01:22:07.521Z,20.10
2022-08-17T01:24:40.326Z,20.00
2022-08-17T01:27:10.784Z,20.00
2022-08-17T01:29:42.193Z,19.90
2022-08-17T01:32:11.284Z,19.90
2022-08-17T01:34:43.448Z,19.90
2022-08-17T01:37:13.688Z,19.90
2022-08-17T01:39:48.597Z,19.90
2022-08-17T01:42:23.687Z,19.90
2022-08-17T01:44:56.213Z,19.90
2022-08-17T01:47:25.306Z,19.90
2022-08-17T01:49:53.997Z,19.90
2022-08-17T01:52:23.774Z,19.80
2022-08-17T01:54:54.453Z,19.80
2022-08-17T01:57:23.066Z,19.80
2022-08-17T01:59:51.655Z,19.80
2022-08-17T02:02:30.383Z,19.80
2022-08-17T02:05:01.591Z,19.80
2022-08-17T02:07:30.286Z,19.80
2022-08-17T02:10:00.695Z,19.70
2022-08-17T02:12:37.887Z,19.70
2022-08-17T02:15:12.386Z,19.60
2022-08-17T02:17:41.573Z,19.60
2022-08-17T02:20:11.612Z,19.50
2022-08-17T02:22:43.578Z,19.50
2022-08-17T02:25:18.923Z,19.50
2022-08-17T02:27:50.921Z,19.40
2022-08-17T02:30:30.910Z,19.40
2022-08-17T02:33:09.491Z,19.40
2022-08-17T02:35:38.673Z,19.30
2022-08-17T02:38:07.890Z,19.20
2022-08-17T02:40:40.553Z,19.20
2022-08-17T02:43:10.001Z,19.20
2022-08-17T02:45:38.642Z,19.10
2022-08-17T02:48:07.400Z,19.10
2022-08-17T02:50:36.083Z,19.10
2022-08-17T02:53:05.542Z,19.10
2022-08-17T02:55:36.564Z,19.10
2022-08-17T02:58:06.897Z,19.00
2022-08-17T03:00:38.459Z,19.00
2022-08-17T03:03:07.592Z,19.00
2022-08-17T03:05:37.890Z,19.00
2022-08-17T03:08:12.936Z,18.90
2022-08-17T03:10:42.449Z,18.90
2022-08-17T03:13:14.325Z,18.90
2022-08-17T03:15:45.739Z,18.80
2022-08-17T03:18:18.959Z,18.80
2022-08-17T03:20:53.679Z,18.80
2022-08-17T03:23:24.239Z,18.80
2022-08-17T03:25:56.353Z,18.80
2022-08-17T03:28:28.174Z,18.80
2022-08-17T03:30:56.950Z,18.80
2022-08-17T03:33:25.523Z,18.80
2022-08-17T03:35:54.091Z,18.80
2022-08-17T03:38:23.304Z,18.80
2022-08-17T03:40:56.753Z,18.80
2022-08-17T03:43:32.824Z,18.80
2022-08-17T03:46:33.815Z,18.80
2022-08-17T03:49:22.230Z,18.80
2022-08-17T03:52:08.717Z,18.80
2022-08-17T03:54:57.217Z,18.80
2022-08-17T03:57:26.017Z,18.80
2022-08-17T03:59:56.954Z,18.80
2022-08-17T04:02:29.391Z,18.80
2022-08-17T04:04:59.147Z,18.80
2022-08-17T04:07:30.068Z,18.80
2022-08-17T04:09:59.425Z,18.90
2022-08-17T04:12:30.799Z,18.90
2022-08-17T04:15:01.220Z,18.90
2022-08-17T04:17:30.674Z,18.90
2022-08-17T04:19:59.373Z,18.90
2022-08-17T04:22:32.897Z,18.90
2022-08-17T04:25:10.222Z,18.90
2022-08-17T04:27:39.113Z,18.90
2022-08-17T04:30:10.917Z,19.00
2022-08-17T04:33:02.246Z,19.00
2022-08-17T04:35:38.503Z,19.00
2022-08-17T04:38:08.154Z,19.10
2022-08-17T04:40:54.678Z,19.00
2022-08-17T04:43:24.895Z,19.00
2022-08-17T04:45:57.297Z,19.00
2022-08-17T04:48:35.299Z,19.10
2022-08-17T04:51:07.158Z,19.10
2022-08-17T04:53:35.885Z,19.10
2022-08-17T04:56:04.867Z,19.20
2022-08-17T04:58:33.486Z,19.20
2022-08-17T05:01:03.728Z,19.20
2022-08-17T05:03:32.470Z,19.20
2022-08-17T05:06:01.097Z,19.20
2022-08-17T05:08:29.951Z,19.30
2022-08-17T05:10:58.578Z,19.30
2022-08-17T05:13:29.585Z,19.30
2022-08-17T05:16:00.774Z,19.40
2022-08-17T05:18:32.126Z,19.40
2022-08-17T05:21:00.770Z,19.40
2022-08-17T05:23:41.570Z,19.40
2022-08-17T05:26:24.774Z,19.50
2022-08-17T05:28:59.596Z,19.50
2022-08-17T05:31:30.349Z,19.50
2022-08-17T05:34:00.402Z,19.60
2022-08-17T05:36:42.367Z,19.60
2022-08-17T05:39:16.799Z,19.60
2022-08-17T05:41:48.582Z,19.60
2022-08-17T05:44:17.872Z,19.60
2022-08-17T05:46:50.511Z,19.70
2022-08-17T05:49:27.125Z,19.70
2022-08-17T05:52:07.931Z,19.80
2022-08-17T05:54:44.905Z,19.80
2022-08-17T05:57:29.427Z,19.90
2022-08-17T06:00:07.102Z,20.00
2022-08-17T06:02:51.811Z,20.10
2022-08-17T06:05:46.613Z,20.20
2022-08-17T06:08:21.905Z,20.20
2022-08-17T06:10:59.735Z,20.30
2022-08-17T06:13:45.867Z,20.30
2022-08-17T06:16:28.268Z,20.30
2022-08-17T06:19:13.158Z,20.30
2022-08-17T06:21:50.148Z,20.40
2022-08-17T06:24:38.752Z,20.40
2022-08-17T06:27:19.827Z,20.50
2022-08-17T06:29:54.061Z,20.60
2022-08-17T06:32:23.190Z,20.90
2022-08-17T06:34:53.457Z,20.90
2022-08-17T06:37:51.278Z,21.00
2022-08-17T06:40:33.308Z,20.90
2022-08-17T06:43:15.467Z,21.00
2022-08-17T06:45:49.477Z,21.10
2022-08-17T06:48:26.061Z,21.10
2022-08-17T06:50:59.987Z,21.20
2022-08-17T06:53:33.858Z,21.20
2022-08-17T06:56:06.717Z,21.30
2022-08-17T06:58:37.408Z,21.40
2022-08-17T07:01:13.042Z,21.40
2022-08-17T07:03:54.635Z,21.50
2022-08-17T07:06:28.070Z,21.50
2022-08-17T07:09:02.417Z,21.60
2022-08-17T07:11:35.085Z,21.80
2022-08-17T07:14:17.371Z,21.90
2022-08-17T07:16:50.045Z,22.00
2022-08-17T07:19:22.455Z,22.10
2022-08-17T07:21:56.511Z,22.20
2022-08-17T07:24:43.216Z,22.20
2022-08-17T07:27:15.536Z,22.30
2022-08-17T07:29:49.462Z,22.40
2022-08-17T07:32:24.066Z,22.40
2022-08-17T07:35:10.723Z,22.40
2022-08-17T07:37:41.321Z,22.50
2022-08-17T07:40:31.980Z,22.50
2022-08-17T07:43:23.631Z,22.60
2022-08-17T07:46:17.736Z,22.60
2022-08-17T07:48:49.653Z,22.70
2022-08-17T07:51:25.120Z,22.70
2022-08-17T07:54:04.788Z,22.70
2022-08-17T07:56:46.725Z,22.80
2022-08-17T07:59:23.565Z,22.90
2022-08-17T08:02:31.741Z,22.90
2022-08-17T08:05:06.731Z,22.90
2022-08-17T08:07:42.425Z,22.90
2022-08-17T08:10:14.015Z,22.90
2022-08-17T08:12:46.457Z,22.90
2022-08-17T08:15:19.398Z,22.90
2022-08-17T08:17:51.918Z,22.80
2022-08-17T08:20:51.081Z,22.80
2022-08-17T08:23:27.055Z,22.70
2022-08-17T08:26:08.601Z,22.70
2022-08-17T08:28:46.514Z,22.60
2022-08-17T08:31:25.207Z,22.60
2022-08-17T08:34:08.034Z,22.60
2022-08-17T08:37:16.381Z,22.50
2022-08-17T08:39:59.483Z,22.50
2022-08-17T08:42:35.509Z,22.50
2022-08-17T08:45:14.603Z,22.50
2022-08-17T08:48:12.707Z,22.50
2022-08-17T08:50:59.408Z,22.50
2022-08-17T08:53:36.421Z,22.50
2022-08-17T08:56:10.126Z,22.50
2022-08-17T08:58:50.642Z,22.40
2022-08-17T09:01:38.055Z,22.40
2022-08-17T09:04:26.008Z,22.50
2022-08-17T09:07:06.705Z,22.40
2022-08-17T09:09:47.197Z,22.40
2022-08-17T09:12:26.182Z,22.40
2022-08-17T09:15:01.203Z,22.40
2022-08-17T09:17:38.423Z,22.40
2022-08-17T09:20:27.707Z,22.50
2022-08-17T09:23:03.863Z,22.40
2022-08-17T09:25:40.453Z,22.40
2022-08-17T09:28:24.097Z,22.40
2022-08-17T09:30:56.278Z,22.40
2022-08-17T09:33:28.259Z,22.40
2022-08-17T09:36:01.065Z,22.40
2022-08-17T09:38:41.597Z,22.40
2022-08-17T09:41:18.744Z,22.30
2022-08-17T09:43:55.129Z,22.40
2022-08-17T09:46:29.395Z,22.50
2022-08-17T09:49:09.640Z,22.50
2022-08-17T09:51:42.611Z,22.60
2022-08-17T09:54:38.784Z,22.90
2022-08-17T09:57:31.341Z,23.10
2022-08-17T10:00:16.578Z,23.40
2022-08-17T10:03:16.250Z,23.40
2022-08-17T10:05:57.522Z,23.40
2022-08-17T10:08:35.157Z,23.50
2022-08-17T10:11:14.647Z,23.50
2022-08-17T10:13:53.300Z,23.60
2022-08-17T10:16:30.153Z,23.60
2022-08-17T10:19:10.335Z,23.70
2022-08-17T10:22:01.366Z,23.80
2022-08-17T10:25:23.730Z,23.90
2022-08-17T10:27:55.615Z,24.10
2022-08-17T10:30:27.273Z,24.20
2022-08-17T10:32:59.213Z,24.40
2022-08-17T10:35:37.678Z,24.50
2022-08-17T10:38:31.750Z,24.60
2022-08-17T10:41:06.104Z,24.60
2022-08-17T10:44:37.312Z,24.60
2022-08-17T10:46:54.250Z,24.60
2022-08-17T10:49:30.361Z,24.60
2022-08-17T10:52:01.007Z,24.60
2022-08-17T10:54:45.664Z,24.50
2022-08-17T10:57:37.259Z,24.50
2022-08-17T11:00:10.304Z,24.40
2022-08-17T11:02:49.294Z,24.40
2022-08-17T11:05:33.975Z,24.40
2022-08-17T11:08:23.272Z,24.50
2022-08-17T11:11:07.518Z,24.50
2022-08-17T11:13:43.121Z,24.60
2022-08-17T11:16:38.149Z,24.60
2022-08-17T11:19:28.937Z,24.70
2022-08-17T11:22:34.614Z,24.80
2022-08-17T11:25:16.067Z,24.80
2022-08-17T11:27:53.488Z,24.80
2022-08-17T11:30:48.496Z,24.80
2022-08-17T11:33:53.389Z,24.80
2022-08-17T11:36:35.388Z,24.80
2022-08-17T11:39:07.231Z,24.90
2022-08-17T11:41:49.363Z,25.00
2022-08-17T11:44:37.660Z,25.00
2022-08-17T11:47:30.707Z,25.10
2022-08-17T11:50:45.369Z,25.20
2022-08-17T11:54:03.602Z,25.30
2022-08-17T11:56:44.610Z,25.30
2022-08-17T11:59:50.491Z,25.50
2022-08-17T12:02:48.075Z,25.60
2022-08-17T12:05:34.023Z,25.70
2022-08-17T12:08:17.705Z,25.80
2022-08-17T12:11:04.308Z,25.90
2022-08-17T12:13:42.897Z,26.10
2022-08-17T12:16:16.256Z,26.10
2022-08-17T12:18:53.542Z,26.20
2022-08-17T12:21:45.017Z,26.30
2022-08-17T12:24:24.449Z,26.40
2022-08-17T12:26:58.593Z,26.50
2022-08-17T12:29:35.813Z,26.50
2022-08-17T12:32:13.874Z,26.60
2022-08-17T12:34:45.437Z,26.70
2022-08-17T12:37:16.814Z,26.70
2022-08-17T12:39:54.851Z,26.70
2022-08-17T12:42:26.902Z,26.60
2022-08-17T12:44:55.522Z,26.60
2022-08-17T12:47:24.410Z,26.60
2022-08-17T12:50:28.999Z,26.60
2022-08-17T12:53:02.036Z,26.60
2022-08-17T12:55:36.553Z,26.50
2022-08-17T12:58:05.753Z,26.50
2022-08-17T13:00:37.983Z,26.50
2022-08-17T13:03:09.625Z,26.50
2022-08-17T13:05:54.742Z,26.50
2022-08-17T13:08:29.306Z,26.50
2022-08-17T13:11:00.348Z,26.60
2022-08-17T13:13:31.607Z,26.80
2022-08-17T13:16:02.411Z,26.80
2022-08-17T13:18:40.314Z,26.80
2022-08-17T13:21:22.146Z,26.80
2022-08-17T13:24:03.340Z,26.80
2022-08-17T13:26:34.845Z,26.90
2022-08-17T13:29:07.701Z,27.00
2022-08-17T13:31:52.839Z,27.10
2022-08-17T13:35:12.676Z,27.10
2022-08-17T13:37:33.945Z,27.10
2022-08-17T13:40:27.729Z,27.20
2022-08-17T13:42:57.261Z,27.20
2022-08-17T13:45:38.982Z,27.30
2022-08-17T13:48:10.981Z,27.20
2022-08-17T13:50:45.604Z,27.20
2022-08-17T13:53:20.866Z,27.20
2022-08-17T13:55:52.522Z,27.10
2022-08-17T13:58:24.688Z,27.00
2022-08-17T14:00:53.334Z,27.00
2022-08-17T14:03:22.233Z,26.90
2022-08-17T14:05:52.855Z,26.80
2022-08-17T14:08:22.872Z,26.70
2022-08-17T14:10:59.058Z,26.70
2022-08-17T14:13:27.790Z,26.60
2022-08-17T14:15:56.874Z,26.50
2022-08-17T14:18:55.234Z,26.50
2022-08-17T14:21:14.862Z,26.40
2022-08-17T14:23:49.099Z,26.30
2022-08-17T14:26:23.781Z,26.10
2022-08-17T14:28:56.304Z,26.10
2022-08-17T14:31:27.478Z,26.00
2022-08-17T14:33:58.106Z,26.10
2022-08-17T14:36:26.700Z,26.20
2022-08-17T14:38:56.570Z,26.20
2022-08-17T14:41:26.303Z,26.40
2022-08-17T14:43:54.985Z,26.40
2022-08-17T14:46:23.606Z,26.30
2022-08-17T14:48:57.106Z,26.30
2022-08-17T14:51:27.577Z,26.10
2022-08-17T14:53:58.086Z,26.10
2022-08-17T14:56:27.332Z,26.10
2022-08-17T14:59:00.368Z,26.20
2022-08-17T15:01:29.047Z,26.30
2022-08-17T15:03:58.034Z,26.30
2022-08-17T15:06:26.603Z,26.40
2022-08-17T15:08:55.726Z,26.40
2022-08-17T15:11:25.845Z,26.50
2022-08-17T15:13:54.394Z,26.40
2022-08-17T15:16:23.533Z,26.40
2022-08-17T15:18:52.679Z,26.40
2022-08-17T15:21:21.297Z,26.40
2022-08-17T15:23:49.887Z,26.40
2022-08-17T15:26:21.726Z,26.40
2022-08-17T15:28:55.993Z,26.50
2022-08-17T15:31:32.359Z,26.50
2022-08-17T15:34:01.225Z,26.50
2022-08-17T15:36:29.833Z,26.50
2022-08-17T15:38:58.735Z,26.50
2022-08-17T15:41:28.523Z,26.50
2022-08-17T15:44:00.490Z,26.50
2022-08-17T15:46:29.242Z,26.40
2022-08-17T15:48:59.651Z,26.40
2022-08-17T15:51:30.026Z,26.40
2022-08-17T15:54:04.373Z,26.40
2022-08-17T15:56:47.548Z,26.40
2022-08-17T15:59:17.822Z,26.40
2022-08-17T16:02:29.911Z,26.40
2022-08-17T16:04:35.087Z,26.50
2022-08-17T16:07:07.494Z,26.50
2022-08-17T16:09:36.060Z,26.40
2022-08-17T16:12:12.762Z,26.40
2022-08-17T16:14:42.928Z,26.40
2022-08-17T16:17:39.072Z,26.40
2022-08-17T16:20:00.691Z,26.50
2022-08-17T16:22:34.973Z,26.50
2022-08-17T16:25:06.447Z,26.40
2022-08-17T16:27:35.706Z,26.40
2022-08-17T16:30:06.337Z,26.40
2022-08-17T16:32:35.115Z,26.40
2022-08-17T16:35:04.071Z,26.40
2022-08-17T16:37:34.282Z,26.50
2022-08-17T16:40:04.490Z,26.50
2022-08-17T16:42:34.574Z,26.40
2022-08-17T16:45:11.734Z,26.30
2022-08-17T16:47:41.770Z,26.30
2022-08-17T16:50:12.515Z,26.40
2022-08-17T16:52:41.840Z,26.30
2022-08-17T16:55:13.450Z,26.30
2022-08-17T16:57:47.505Z,26.30
2022-08-17T17:00:20.910Z,26.30
2022-08-17T17:02:53.507Z,26.30
2022-08-17T17:05:37.557Z,26.20
2022-08-17T17:08:12.656Z,26.10
2022-08-17T17:10:43.746Z,26.00
2022-08-17T17:13:19.052Z,26.00
2022-08-17T17:15:59.746Z,26.00
2022-08-17T17:18:41.553Z,25.90
2022-08-17T17:21:15.123Z,26.00
2022-08-17T17:23:53.434Z,25.90
2022-08-17T17:26:38.899Z,25.90
2022-08-17T17:29:20.851Z,25.90
2022-08-17T17:32:02.213Z,25.90
2022-08-17T17:34:34.734Z,25.80
2022-08-17T17:37:08.793Z,25.70
2022-08-17T17:39:43.784Z,25.60
2022-08-17T17:42:20.210Z,25.60
2022-08-17T17:44:52.326Z,25.60
2022-08-17T17:47:22.553Z,25.60
2022-08-17T17:49:51.280Z,25.60
2022-08-17T17:52:28.351Z,25.60
2022-08-17T17:55:10.631Z,25.60
2022-08-17T17:57:55.903Z,25.50
2022-08-17T18:00:27.331Z,25.40
2022-08-17T18:03:21.783Z,25.30
2022-08-17T18:06:08.094Z,25.20
2022-08-17T18:08:51.002Z,25.20
2022-08-17T18:11:36.984Z,25.20
2022-08-17T18:14:22.369Z,25.20
2022-08-17T18:16:55.499Z,25.10
2022-08-17T18:19:48.495Z,25.10
2022-08-17T18:22:20.159Z,25.00
2022-08-17T18:24:55.749Z,25.00
2022-08-17T18:27:30.925Z,24.90
2022-08-17T18:30:04.463Z,24.80
2022-08-17T18:32:38.913Z,24.80
2022-08-17T18:35:35.026Z,24.70
2022-08-17T18:38:23.123Z,24.60
2022-08-17T18:41:01.197Z,24.50
2022-08-17T18:43:53.356Z,24.40
2022-08-17T18:46:30.353Z,24.40
2022-08-17T18:49:02.703Z,24.30
2022-08-17T18:51:42.117Z,24.20
2022-08-17T18:54:21.770Z,24.20
2022-08-17T18:56:53.635Z,24.10
2022-08-17T18:59:34.520Z,24.00
2022-08-17T19:02:44.633Z,23.90
2022-08-17T19:05:28.859Z,23.80
2022-08-17T19:08:18.314Z,23.80
2022-08-17T19:10:48.721Z,23.70
2022-08-17T19:13:24.277Z,23.60
2022-08-17T19:16:13.916Z,23.60
2022-08-17T19:18:48.798Z,23.50
2022-08-17T19:21:22.237Z,23.50
2022-08-17T19:23:58.796Z,23.50
2022-08-17T19:26:51.359Z,23.40
2022-08-17T19:29:25.589Z,23.30
2022-08-17T19:31:55.173Z,23.20
2022-08-17T19:34:30.073Z,23.20
2022-08-17T19:37:08.830Z,23.10
2022-08-17T19:39:47.706Z,23.00
2022-08-17T19:42:26.571Z,23.00
2022-08-17T19:45:02.910Z,22.90
2022-08-17T19:47:56.448Z,22.90
2022-08-17T19:50:38.233Z,22.80
2022-08-17T19:53:17.619Z,22.70
2022-08-17T19:55:57.295Z,22.70
2022-08-17T19:58:38.578Z,22.60
2022-08-17T20:01:13.689Z,22.50
2022-08-17T20:03:53.013Z,22.50
2022-08-17T20:06:24.013Z,22.40
2022-08-17T20:08:59.682Z,22.30
2022-08-17T20:11:35.183Z,22.30
2022-08-17T20:14:08.966Z,22.30
2022-08-17T20:16:37.558Z,22.30
2022-08-17T20:19:09.452Z,22.20
2022-08-17T20:21:46.781Z,22.10
2022-08-17T20:24:21.302Z,22.10
2022-08-17T20:26:58.495Z,22.10
2022-08-17T20:29:40.108Z,22.00
2022-08-17T20:32:19.881Z,22.00
2022-08-17T20:34:49.093Z,22.00
2022-08-17T20:37:30.936Z,21.90
2022-08-17T20:40:19.184Z,21.90
2022-08-17T20:42:49.305Z,21.80
2022-08-17T20:46:12.704Z,21.80
2022-08-17T20:48:45.302Z,21.80
2022-08-17T20:51:30.568Z,21.70
2022-08-17T20:54:26.465Z,21.70
2022-08-17T20:57:00.935Z,21.60
2022-08-17T21:00:18.140Z,21.60
2022-08-17T21:02:50.925Z,21.50
2022-08-17T21:05:32.259Z,21.50
2022-08-17T21:08:14.833Z,21.50
2022-08-17T21:10:45.538Z,21.40
2022-08-17T21:13:54.956Z,21.40
2022-08-17T21:16:48.250Z,21.30
2022-08-17T21:19:31.381Z,21.30
2022-08-17T21:22:23.138Z,21.20
2022-08-17T21:24:59.039Z,21.20
2022-08-17T21:27:38.873Z,21.10
2022-08-17T21:30:47.488Z,21.10
2022-08-17T21:33:25.078Z,21.10
2022-08-17T21:36:11.364Z,21.00
2022-08-17T21:38:43.981Z,21.00
2022-08-17T21:41:22.140Z,20.90
2022-08-17T21:43:52.925Z,20.90
2022-08-17T21:46:28.739Z,20.90
2022-08-17T21:49:07.249Z,20.90
2022-08-17T21:51:47.962Z,20.80
2022-08-17T21:54:31.224Z,20.80
2022-08-17T21:57:02.212Z,20.80
2022-08-17T21:59:34.631Z,20.70
2022-08-17T22:02:06.045Z,20.70
2022-08-17T22:04:36.536Z,20.70
2022-08-17T22:07:08.643Z,20.60
2022-08-17T22:09:43.735Z,20.60
2022-08-17T22:12:16.538Z,20.60
2022-08-17T22:14:53.164Z,20.50
2022-08-17T22:17:25.313Z,20.50
2022-08-17T22:19:57.361Z,20.50
2022-08-17T22:22:34.380Z,20.50
2022-08-17T22:25:05.136Z,20.40
2022-08-17T22:27:54.325Z,20.40
2022-08-17T22:30:34.099Z,20.30
2022-08-17T22:33:31.423Z,20.20
2022-08-17T22:36:11.271Z,20.20
2022-08-17T22:38:40.580Z,20.10
2022-08-17T22:41:41.706Z,20.10
2022-08-17T22:44:25.397Z,20.10
2022-08-17T22:47:11.180Z,20.00
2022-08-17T22:49:53.349Z,20.00
2022-08-17T22:52:33.632Z,20.00
2022-08-17T22:55:23.539Z,20.00
2022-08-17T22:58:06.780Z,19.90
2022-08-17T23:00:40.174Z,19.90
2022-08-17T23:03:17.737Z,19.90
2022-08-17T23:05:50.078Z,19.80
2022-08-17T23:08:21.300Z,19.80
2022-08-17T23:10:50.282Z,19.80
2022-08-17T23:13:21.203Z,19.80
2022-08-17T23:15:51.994Z,19.70
2022-08-17T23:18:20.714Z,19.70
2022-08-17T23:20:50.662Z,19.70
2022-08-17T23:23:23.384Z,19.70
2022-08-17T23:25:52.302Z,19.70
2022-08-17T23:28:21.824Z,19.70
2022-08-17T23:30:50.429Z,19.70
2022-08-17T23:33:22.250Z,19.60
2022-08-17T23:35:53.469Z,19.60
2022-08-17T23:38:22.346Z,19.60
2022-08-17T23:40:50.925Z,19.60
2022-08-17T23:43:25.618Z,19.60
2022-08-17T23:45:59.601Z,19.60
2022-08-17T23:48:36.583Z,19.60
2022-08-17T23:51:11.044Z,19.60
2022-08-17T23:53:44.041Z,19.60
2022-08-17T23:56:12.739Z,19.60
2022-08-17T23:58:43.026Z,19.60
